sensor_id;sensor_type;location;lat;lon;timestamp;temperature;humidity
76607;DHT22;65498;50.916;4.698;2023-01-16T00:01:45;21.20;39.50
76607;DHT22;65498;50.916;4.698;2023-01-16T00:04:12;21.20;39.50
76607;DHT22;65498;50.916;4.698;2023-01-16T00:06:40;21.20;39.50
76607;DHT22;65498;50.916;4.698;2023-01-16T00:09:08;21.20;39.60
76607;DHT22;65498;50.916;4.698;2023-01-16T00:11:35;21.20;39.60
76607;DHT22;65498;50.916;4.698;2023-01-16T00:14:03;21.20;39.70
76607;DHT22;65498;50.916;4.698;2023-01-16T00:16:31;21.20;39.70
76607;DHT22;65498;50.916;4.698;2023-01-16T00:18:58;21.20;39.70
76607;DHT22;65498;50.916;4.698;2023-01-16T00:21:26;21.10;39.80
76607;DHT22;65498;50.916;4.698;2023-01-16T00:23:55;21.20;39.70
76607;DHT22;65498;50.916;4.698;2023-01-16T00:26:25;21.20;39.60
76607;DHT22;65498;50.916;4.698;2023-01-16T00:28:53;21.20;39.60
76607;DHT22;65498;50.916;4.698;2023-01-16T00:31:20;21.20;39.70
76607;DHT22;65498;50.916;4.698;2023-01-16T00:33:50;21.10;39.80
76607;DHT22;65498;50.916;4.698;2023-01-16T00:36:17;21.10;39.80
76607;DHT22;65498;50.916;4.698;2023-01-16T00:38:45;21.10;39.90
76607;DHT22;65498;50.916;4.698;2023-01-16T00:41:13;21.10;39.80
76607;DHT22;65498;50.916;4.698;2023-01-16T00:43:40;21.10;39.80
76607;DHT22;65498;50.916;4.698;2023-01-16T00:46:08;21.10;39.80
76607;DHT22;65498;50.916;4.698;2023-01-16T00:48:35;21.10;39.80
76607;DHT22;65498;50.916;4.698;2023-01-16T00:51:03;21.20;39.90
76607;DHT22;65498;50.916;4.698;2023-01-16T00:53:31;21.10;39.90
76607;DHT22;65498;50.916;4.698;2023-01-16T00:55:58;21.10;40.00
76607;DHT22;65498;50.916;4.698;2023-01-16T00:58:26;21.10;40.00
76607;DHT22;65498;50.916;4.698;2023-01-16T01:00:53;21.20;40.70
76607;DHT22;65498;50.916;4.698;2023-01-16T01:03:21;21.10;40.50
76607;DHT22;65498;50.916;4.698;2023-01-16T01:05:48;21.20;40.20
76607;DHT22;65498;50.916;4.698;2023-01-16T01:08:16;21.20;40.30
76607;DHT22;65498;50.916;4.698;2023-01-16T01:10:44;21.10;40.30
76607;DHT22;65498;50.916;4.698;2023-01-16T01:13:11;21.10;40.50
76607;DHT22;65498;50.916;4.698;2023-01-16T01:15:39;21.10;40.70
76607;DHT22;65498;50.916;4.698;2023-01-16T01:18:07;21.10;40.70
76607;DHT22;65498;50.916;4.698;2023-01-16T01:20:34;21.10;40.60
76607;DHT22;65498;50.916;4.698;2023-01-16T01:23:02;21.10;40.80
76607;DHT22;65498;50.916;4.698;2023-01-16T01:25:29;21.10;40.70
76607;DHT22;65498;50.916;4.698;2023-01-16T01:27:57;21.10;40.90
76607;DHT22;65498;50.916;4.698;2023-01-16T01:30:24;21.10;41.00
76607;DHT22;65498;50.916;4.698;2023-01-16T01:32:52;21.10;41.00
76607;DHT22;65498;50.916;4.698;2023-01-16T01:35:19;21.10;41.00
76607;DHT22;65498;50.916;4.698;2023-01-16T01:37:47;21.10;41.10
76607;DHT22;65498;50.916;4.698;2023-01-16T01:40:15;21.10;41.10
76607;DHT22;65498;50.916;4.698;2023-01-16T01:42:43;21.10;41.10
76607;DHT22;65498;50.916;4.698;2023-01-16T01:45:19;21.20;41.20
76607;DHT22;65498;50.916;4.698;2023-01-16T01:50:40;21.20;41.30
76607;DHT22;65498;50.916;4.698;2023-01-16T01:53:18;21.10;41.50
76607;DHT22;65498;50.916;4.698;2023-01-16T01:55:42;21.00;41.60
76607;DHT22;65498;50.916;4.698;2023-01-16T01:58:11;21.00;41.50
76607;DHT22;65498;50.916;4.698;2023-01-16T02:00:42;21.10;41.80
76607;DHT22;65498;50.916;4.698;2023-01-16T02:03:13;21.00;41.80
76607;DHT22;65498;50.916;4.698;2023-01-16T02:05:48;21.00;41.80
76607;DHT22;65498;50.916;4.698;2023-01-16T02:08:17;21.00;41.80
76607;DHT22;65498;50.916;4.698;2023-01-16T02:10:51;21.00;41.80
76607;DHT22;65498;50.916;4.698;2023-01-16T02:13:15;21.10;42.10
76607;DHT22;65498;50.916;4.698;2023-01-16T02:15:42;21.10;41.90
76607;DHT22;65498;50.916;4.698;2023-01-16T02:18:28;21.00;41.80
76607;DHT22;65498;50.916;4.698;2023-01-16T02:24:34;21.00;42.10
76607;DHT22;65498;50.916;4.698;2023-01-16T02:30:08;21.00;42.40
76607;DHT22;65498;50.916;4.698;2023-01-16T02:32:59;21.00;42.40
76607;DHT22;65498;50.916;4.698;2023-01-16T02:35:58;21.00;43.00
76607;DHT22;65498;50.916;4.698;2023-01-16T02:44:40;21.00;42.70
76607;DHT22;65498;50.916;4.698;2023-01-16T02:47:23;21.00;42.60
76607;DHT22;65498;50.916;4.698;2023-01-16T02:55:07;21.00;42.60
76607;DHT22;65498;50.916;4.698;2023-01-16T02:57:37;21.00;42.50
76607;DHT22;65498;50.916;4.698;2023-01-16T03:00:06;21.00;42.60
76607;DHT22;65498;50.916;4.698;2023-01-16T03:02:34;21.00;42.70
76607;DHT22;65498;50.916;4.698;2023-01-16T03:05:02;21.00;42.90
76607;DHT22;65498;50.916;4.698;2023-01-16T03:15:59;21.00;43.10
76607;DHT22;65498;50.916;4.698;2023-01-16T03:21:30;20.90;43.40
76607;DHT22;65498;50.916;4.698;2023-01-16T03:24:02;20.90;43.30
76607;DHT22;65498;50.916;4.698;2023-01-16T03:26:48;20.90;43.10
76607;DHT22;65498;50.916;4.698;2023-01-16T03:29:29;21.00;43.40
76607;DHT22;65498;50.916;4.698;2023-01-16T03:34:43;21.00;43.50
76607;DHT22;65498;50.916;4.698;2023-01-16T03:37:27;20.90;43.50
76607;DHT22;65498;50.916;4.698;2023-01-16T03:40:02;20.90;43.50
76607;DHT22;65498;50.916;4.698;2023-01-16T03:43:20;20.90;43.40
76607;DHT22;65498;50.916;4.698;2023-01-16T03:45:11;21.00;43.50
76607;DHT22;65498;50.916;4.698;2023-01-16T03:47:42;20.90;43.70
76607;DHT22;65498;50.916;4.698;2023-01-16T03:50:11;20.90;43.50
76607;DHT22;65498;50.916;4.698;2023-01-16T03:52:42;20.90;43.60
76607;DHT22;65498;50.916;4.698;2023-01-16T03:55:16;20.90;43.70
76607;DHT22;65498;50.916;4.698;2023-01-16T03:57:57;20.90;43.80
76607;DHT22;65498;50.916;4.698;2023-01-16T04:00:20;20.90;43.80
76607;DHT22;65498;50.916;4.698;2023-01-16T04:02:54;20.90;43.70
76607;DHT22;65498;50.916;4.698;2023-01-16T04:10:34;20.90;43.90
76607;DHT22;65498;50.916;4.698;2023-01-16T04:13:08;20.90;43.90
76607;DHT22;65498;50.916;4.698;2023-01-16T04:15:39;20.90;44.00
76607;DHT22;65498;50.916;4.698;2023-01-16T04:18:07;20.90;43.70
76607;DHT22;65498;50.916;4.698;2023-01-16T04:20:36;20.90;43.80
76607;DHT22;65498;50.916;4.698;2023-01-16T04:23:04;20.90;44.20
76607;DHT22;65498;50.916;4.698;2023-01-16T04:25:32;20.90;44.00
76607;DHT22;65498;50.916;4.698;2023-01-16T04:28:00;20.90;43.90
76607;DHT22;65498;50.916;4.698;2023-01-16T04:30:27;20.90;44.20
76607;DHT22;65498;50.916;4.698;2023-01-16T04:32:55;20.90;44.10
76607;DHT22;65498;50.916;4.698;2023-01-16T04:35:22;20.90;44.00
76607;DHT22;65498;50.916;4.698;2023-01-16T04:37:50;20.90;44.10
76607;DHT22;65498;50.916;4.698;2023-01-16T04:40:17;20.90;43.90
76607;DHT22;65498;50.916;4.698;2023-01-16T04:42:45;20.90;44.10
76607;DHT22;65498;50.916;4.698;2023-01-16T04:45:13;20.90;44.00
76607;DHT22;65498;50.916;4.698;2023-01-16T04:47:44;20.90;44.00
76607;DHT22;65498;50.916;4.698;2023-01-16T04:50:10;20.90;44.00
76607;DHT22;65498;50.916;4.698;2023-01-16T04:52:37;20.90;44.20
76607;DHT22;65498;50.916;4.698;2023-01-16T04:55:06;20.90;44.10
76607;DHT22;65498;50.916;4.698;2023-01-16T04:57:33;20.90;44.00
76607;DHT22;65498;50.916;4.698;2023-01-16T05:00:01;20.80;44.00
76607;DHT22;65498;50.916;4.698;2023-01-16T05:02:29;20.80;44.00
76607;DHT22;65498;50.916;4.698;2023-01-16T05:04:57;20.80;44.20
76607;DHT22;65498;50.916;4.698;2023-01-16T05:07:24;20.80;44.00
76607;DHT22;65498;50.916;4.698;2023-01-16T05:09:53;20.80;44.20
76607;DHT22;65498;50.916;4.698;2023-01-16T05:12:21;20.90;44.10
76607;DHT22;65498;50.916;4.698;2023-01-16T05:14:49;20.80;44.30
76607;DHT22;65498;50.916;4.698;2023-01-16T05:17:16;20.80;44.10
76607;DHT22;65498;50.916;4.698;2023-01-16T05:19:44;20.80;44.40
76607;DHT22;65498;50.916;4.698;2023-01-16T05:22:11;20.80;44.20
76607;DHT22;65498;50.916;4.698;2023-01-16T05:24:39;20.80;44.20
76607;DHT22;65498;50.916;4.698;2023-01-16T05:27:06;20.80;44.10
76607;DHT22;65498;50.916;4.698;2023-01-16T05:29:34;20.80;44.20
76607;DHT22;65498;50.916;4.698;2023-01-16T05:32:01;20.80;44.10
76607;DHT22;65498;50.916;4.698;2023-01-16T05:34:29;20.80;44.10
76607;DHT22;65498;50.916;4.698;2023-01-16T05:36:56;20.80;44.30
76607;DHT22;65498;50.916;4.698;2023-01-16T05:39:24;20.80;44.20
76607;DHT22;65498;50.916;4.698;2023-01-16T05:41:52;20.80;44.40
76607;DHT22;65498;50.916;4.698;2023-01-16T05:44:19;20.80;44.40
76607;DHT22;65498;50.916;4.698;2023-01-16T05:46:47;20.80;44.30
76607;DHT22;65498;50.916;4.698;2023-01-16T05:49:16;20.80;44.30
76607;DHT22;65498;50.916;4.698;2023-01-16T05:51:44;20.80;44.30
76607;DHT22;65498;50.916;4.698;2023-01-16T05:54:12;20.70;44.40
76607;DHT22;65498;50.916;4.698;2023-01-16T05:56:39;20.80;44.40
76607;DHT22;65498;50.916;4.698;2023-01-16T05:59:08;20.80;45.00
76607;DHT22;65498;50.916;4.698;2023-01-16T06:01:36;20.70;44.10
76607;DHT22;65498;50.916;4.698;2023-01-16T06:04:04;20.80;44.30
76607;DHT22;65498;50.916;4.698;2023-01-16T06:06:31;20.80;44.30
76607;DHT22;65498;50.916;4.698;2023-01-16T06:08:59;20.80;44.40
76607;DHT22;65498;50.916;4.698;2023-01-16T06:11:26;20.70;44.00
76607;DHT22;65498;50.916;4.698;2023-01-16T06:13:54;20.70;44.30
76607;DHT22;65498;50.916;4.698;2023-01-16T06:16:22;20.70;44.30
76607;DHT22;65498;50.916;4.698;2023-01-16T06:18:50;20.70;44.30
76607;DHT22;65498;50.916;4.698;2023-01-16T06:21:17;20.70;44.20
76607;DHT22;65498;50.916;4.698;2023-01-16T06:23:45;20.70;44.10
76607;DHT22;65498;50.916;4.698;2023-01-16T06:26:12;20.70;44.20
76607;DHT22;65498;50.916;4.698;2023-01-16T06:28:40;20.70;44.10
76607;DHT22;65498;50.916;4.698;2023-01-16T06:31:08;20.70;44.10
76607;DHT22;65498;50.916;4.698;2023-01-16T06:33:35;20.70;44.10
76607;DHT22;65498;50.916;4.698;2023-01-16T06:36:03;20.70;44.00
76607;DHT22;65498;50.916;4.698;2023-01-16T06:38:31;20.70;44.90
76607;DHT22;65498;50.916;4.698;2023-01-16T06:40:59;20.70;44.20
76607;DHT22;65498;50.916;4.698;2023-01-16T06:43:27;20.70;44.00
76607;DHT22;65498;50.916;4.698;2023-01-16T06:45:55;20.70;44.10
76607;DHT22;65498;50.916;4.698;2023-01-16T06:48:23;20.70;44.10
76607;DHT22;65498;50.916;4.698;2023-01-16T06:50:52;20.70;44.30
76607;DHT22;65498;50.916;4.698;2023-01-16T06:53:20;20.70;44.20
76607;DHT22;65498;50.916;4.698;2023-01-16T06:55:48;20.70;44.20
76607;DHT22;65498;50.916;4.698;2023-01-16T06:58:15;20.70;44.30
76607;DHT22;65498;50.916;4.698;2023-01-16T07:00:43;20.70;44.40
76607;DHT22;65498;50.916;4.698;2023-01-16T07:03:11;20.70;44.30
76607;DHT22;65498;50.916;4.698;2023-01-16T07:05:39;20.70;44.30
76607;DHT22;65498;50.916;4.698;2023-01-16T07:08:06;20.70;44.60
76607;DHT22;65498;50.916;4.698;2023-01-16T07:10:34;20.70;44.40
76607;DHT22;65498;50.916;4.698;2023-01-16T07:13:02;20.70;44.50
76607;DHT22;65498;50.916;4.698;2023-01-16T07:15:30;20.70;44.60
76607;DHT22;65498;50.916;4.698;2023-01-16T07:18:16;20.70;44.50
76607;DHT22;65498;50.916;4.698;2023-01-16T07:21:03;20.70;44.80
76607;DHT22;65498;50.916;4.698;2023-01-16T07:23:55;20.70;44.70
76607;DHT22;65498;50.916;4.698;2023-01-16T07:26:23;20.70;44.60
76607;DHT22;65498;50.916;4.698;2023-01-16T07:28:52;20.70;44.50
76607;DHT22;65498;50.916;4.698;2023-01-16T07:31:21;20.70;44.80
76607;DHT22;65498;50.916;4.698;2023-01-16T07:33:49;20.70;44.60
76607;DHT22;65498;50.916;4.698;2023-01-16T07:36:17;20.60;44.90
76607;DHT22;65498;50.916;4.698;2023-01-16T07:38:45;20.70;44.80
76607;DHT22;65498;50.916;4.698;2023-01-16T07:41:12;20.70;45.00
76607;DHT22;65498;50.916;4.698;2023-01-16T07:43:40;20.70;44.60
76607;DHT22;65498;50.916;4.698;2023-01-16T07:46:08;20.70;45.00
76607;DHT22;65498;50.916;4.698;2023-01-16T07:48:36;20.70;45.10
76607;DHT22;65498;50.916;4.698;2023-01-16T07:51:04;20.70;45.00
76607;DHT22;65498;50.916;4.698;2023-01-16T07:53:31;20.70;44.90
76607;DHT22;65498;50.916;4.698;2023-01-16T07:56:00;20.60;45.10
76607;DHT22;65498;50.916;4.698;2023-01-16T07:58:29;20.70;45.10
76607;DHT22;65498;50.916;4.698;2023-01-16T08:00:57;20.70;45.00
76607;DHT22;65498;50.916;4.698;2023-01-16T08:03:25;20.70;45.00
76607;DHT22;65498;50.916;4.698;2023-01-16T08:05:57;20.70;44.60
76607;DHT22;65498;50.916;4.698;2023-01-16T08:08:25;20.70;44.80
76607;DHT22;65498;50.916;4.698;2023-01-16T08:10:57;20.70;45.00
76607;DHT22;65498;50.916;4.698;2023-01-16T08:13:25;20.70;45.10
76607;DHT22;65498;50.916;4.698;2023-01-16T08:15:55;20.70;45.30
76607;DHT22;65498;50.916;4.698;2023-01-16T08:18:22;20.60;45.40
76607;DHT22;65498;50.916;4.698;2023-01-16T08:20:50;20.60;45.20
76607;DHT22;65498;50.916;4.698;2023-01-16T08:23:17;20.60;45.30
76607;DHT22;65498;50.916;4.698;2023-01-16T08:25:49;20.60;45.40
76607;DHT22;65498;50.916;4.698;2023-01-16T08:28:15;20.60;45.40
76607;DHT22;65498;50.916;4.698;2023-01-16T08:30:43;20.60;45.40
76607;DHT22;65498;50.916;4.698;2023-01-16T08:33:10;20.60;45.40
76607;DHT22;65498;50.916;4.698;2023-01-16T08:35:38;20.60;45.10
76607;DHT22;65498;50.916;4.698;2023-01-16T08:38:06;20.70;45.00
76607;DHT22;65498;50.916;4.698;2023-01-16T08:40:34;20.80;46.20
76607;DHT22;65498;50.916;4.698;2023-01-16T08:43:01;20.90;46.00
76607;DHT22;65498;50.916;4.698;2023-01-16T08:45:36;21.00;45.30
76607;DHT22;65498;50.916;4.698;2023-01-16T08:48:24;21.10;44.40
76607;DHT22;65498;50.916;4.698;2023-01-16T08:51:16;21.10;44.20
76607;DHT22;65498;50.916;4.698;2023-01-16T08:53:53;21.20;43.90
76607;DHT22;65498;50.916;4.698;2023-01-16T08:56:21;21.20;43.60
76607;DHT22;65498;50.916;4.698;2023-01-16T08:58:49;21.30;43.20
76607;DHT22;65498;50.916;4.698;2023-01-16T09:01:17;21.40;42.90
76607;DHT22;65498;50.916;4.698;2023-01-16T09:03:45;21.40;42.60
76607;DHT22;65498;50.916;4.698;2023-01-16T09:06:13;21.50;42.60
76607;DHT22;65498;50.916;4.698;2023-01-16T09:08:41;21.50;42.40
76607;DHT22;65498;50.916;4.698;2023-01-16T09:11:08;21.50;42.40
76607;DHT22;65498;50.916;4.698;2023-01-16T09:13:54;21.50;42.30
76607;DHT22;65498;50.916;4.698;2023-01-16T09:16:24;21.50;42.30
76607;DHT22;65498;50.916;4.698;2023-01-16T09:18:52;21.50;42.90
76607;DHT22;65498;50.916;4.698;2023-01-16T09:21:20;21.50;42.40
76607;DHT22;65498;50.916;4.698;2023-01-16T09:23:50;21.50;42.30
76607;DHT22;65498;50.916;4.698;2023-01-16T09:26:18;21.60;42.30
76607;DHT22;65498;50.916;4.698;2023-01-16T09:28:46;21.50;42.20
76607;DHT22;65498;50.916;4.698;2023-01-16T09:31:13;21.60;42.00
76607;DHT22;65498;50.916;4.698;2023-01-16T09:33:41;21.70;41.90
76607;DHT22;65498;50.916;4.698;2023-01-16T09:36:09;21.70;41.80
76607;DHT22;65498;50.916;4.698;2023-01-16T09:38:36;21.70;41.70
76607;DHT22;65498;50.916;4.698;2023-01-16T09:41:04;21.40;41.80
76607;DHT22;65498;50.916;4.698;2023-01-16T09:43:37;21.40;42.40
76607;DHT22;65498;50.916;4.698;2023-01-16T09:46:14;21.50;42.40
76607;DHT22;65498;50.916;4.698;2023-01-16T09:51:36;21.60;42.00
76607;DHT22;65498;50.916;4.698;2023-01-16T09:54:06;21.70;42.00
76607;DHT22;65498;50.916;4.698;2023-01-16T09:56:55;21.70;42.00
76607;DHT22;65498;50.916;4.698;2023-01-16T09:59:43;21.70;41.90
76607;DHT22;65498;50.916;4.698;2023-01-16T10:02:31;21.70;41.80
76607;DHT22;65498;50.916;4.698;2023-01-16T10:05:02;21.70;42.50
76607;DHT22;65498;50.916;4.698;2023-01-16T10:13:19;21.70;41.70
76607;DHT22;65498;50.916;4.698;2023-01-16T10:16:29;21.70;41.80
76607;DHT22;65498;50.916;4.698;2023-01-16T10:21:06;21.70;41.90
76607;DHT22;65498;50.916;4.698;2023-01-16T10:26:15;21.80;42.00
76607;DHT22;65498;50.916;4.698;2023-01-16T10:31:27;21.80;42.10
76607;DHT22;65498;50.916;4.698;2023-01-16T10:33:55;21.90;42.00
76607;DHT22;65498;50.916;4.698;2023-01-16T10:36:26;21.90;42.00
76607;DHT22;65498;50.916;4.698;2023-01-16T10:38:56;21.90;42.00
76607;DHT22;65498;50.916;4.698;2023-01-16T10:41:34;21.90;42.00
76607;DHT22;65498;50.916;4.698;2023-01-16T10:44:32;21.90;41.90
76607;DHT22;65498;50.916;4.698;2023-01-16T10:47:26;21.80;42.00
76607;DHT22;65498;50.916;4.698;2023-01-16T10:50:16;21.80;42.20
76607;DHT22;65498;50.916;4.698;2023-01-16T10:52:46;21.70;42.20
76607;DHT22;65498;50.916;4.698;2023-01-16T10:55:15;21.70;42.40
76607;DHT22;65498;50.916;4.698;2023-01-16T10:57:52;21.70;42.60
76607;DHT22;65498;50.916;4.698;2023-01-16T11:00:23;21.70;42.70
76607;DHT22;65498;50.916;4.698;2023-01-16T11:02:48;21.70;42.60
76607;DHT22;65498;50.916;4.698;2023-01-16T11:05:30;21.60;42.70
76607;DHT22;65498;50.916;4.698;2023-01-16T11:08:12;21.60;42.80
76607;DHT22;65498;50.916;4.698;2023-01-16T11:10:42;21.60;42.90
76607;DHT22;65498;50.916;4.698;2023-01-16T11:13:21;21.70;43.00
76607;DHT22;65498;50.916;4.698;2023-01-16T11:19:22;21.70;43.30
76607;DHT22;65498;50.916;4.698;2023-01-16T11:21:32;21.70;43.60
76607;DHT22;65498;50.916;4.698;2023-01-16T11:24:10;21.70;43.70
76607;DHT22;65498;50.916;4.698;2023-01-16T11:26:33;21.70;43.90
76607;DHT22;65498;50.916;4.698;2023-01-16T11:29:01;21.70;43.80
76607;DHT22;65498;50.916;4.698;2023-01-16T11:31:30;21.70;43.90
76607;DHT22;65498;50.916;4.698;2023-01-16T11:34:00;21.70;44.20
76607;DHT22;65498;50.916;4.698;2023-01-16T11:36:32;21.80;44.60
76607;DHT22;65498;50.916;4.698;2023-01-16T11:39:00;21.80;44.50
76607;DHT22;65498;50.916;4.698;2023-01-16T11:41:38;21.90;44.60
76607;DHT22;65498;50.916;4.698;2023-01-16T11:44:17;21.90;44.80
76607;DHT22;65498;50.916;4.698;2023-01-16T11:47:03;22.00;44.50
76607;DHT22;65498;50.916;4.698;2023-01-16T11:49:37;22.00;44.80
76607;DHT22;65498;50.916;4.698;2023-01-16T11:52:05;22.00;44.70
76607;DHT22;65498;50.916;4.698;2023-01-16T11:54:34;22.00;44.70
76607;DHT22;65498;50.916;4.698;2023-01-16T11:59:48;22.10;44.80
76607;DHT22;65498;50.916;4.698;2023-01-16T12:02:27;22.10;44.70
76607;DHT22;65498;50.916;4.698;2023-01-16T12:07:51;22.00;44.80
76607;DHT22;65498;50.916;4.698;2023-01-16T12:13:07;22.00;44.90
76607;DHT22;65498;50.916;4.698;2023-01-16T12:21:45;22.10;45.00
76607;DHT22;65498;50.916;4.698;2023-01-16T12:24:32;22.10;45.10
76607;DHT22;65498;50.916;4.698;2023-01-16T12:32:38;22.10;45.10
76607;DHT22;65498;50.916;4.698;2023-01-16T12:38:15;22.20;44.80
76607;DHT22;65498;50.916;4.698;2023-01-16T12:40:48;22.20;45.00
76607;DHT22;65498;50.916;4.698;2023-01-16T12:48:59;22.10;45.20
76607;DHT22;65498;50.916;4.698;2023-01-16T12:51:42;22.10;45.30
76607;DHT22;65498;50.916;4.698;2023-01-16T12:54:30;22.10;45.20
76607;DHT22;65498;50.916;4.698;2023-01-16T12:57:12;22.10;45.20
76607;DHT22;65498;50.916;4.698;2023-01-16T12:59:38;22.10;45.20
76607;DHT22;65498;50.916;4.698;2023-01-16T13:05:01;22.00;45.50
76607;DHT22;65498;50.916;4.698;2023-01-16T13:07:37;22.00;45.60
76607;DHT22;65498;50.916;4.698;2023-01-16T13:12:59;22.00;46.00
76607;DHT22;65498;50.916;4.698;2023-01-16T13:15:48;22.00;45.50
76607;DHT22;65498;50.916;4.698;2023-01-16T13:18:27;22.10;45.30
76607;DHT22;65498;50.916;4.698;2023-01-16T13:20:55;22.10;45.30
76607;DHT22;65498;50.916;4.698;2023-01-16T13:23:37;22.10;45.10
76607;DHT22;65498;50.916;4.698;2023-01-16T13:26:11;22.10;45.30
76607;DHT22;65498;50.916;4.698;2023-01-16T13:29:07;22.10;45.40
76607;DHT22;65498;50.916;4.698;2023-01-16T13:31:39;22.10;45.30
76607;DHT22;65498;50.916;4.698;2023-01-16T13:34:20;22.20;45.20
76607;DHT22;65498;50.916;4.698;2023-01-16T13:39:58;22.10;44.90
76607;DHT22;65498;50.916;4.698;2023-01-16T13:42:22;22.20;44.80
76607;DHT22;65498;50.916;4.698;2023-01-16T13:44:53;22.20;44.60
76607;DHT22;65498;50.916;4.698;2023-01-16T13:47:39;22.20;44.80
76607;DHT22;65498;50.916;4.698;2023-01-16T13:52:47;22.20;44.70
76607;DHT22;65498;50.916;4.698;2023-01-16T13:55:29;22.20;44.80
76607;DHT22;65498;50.916;4.698;2023-01-16T14:00:45;22.30;44.70
76607;DHT22;65498;50.916;4.698;2023-01-16T14:03:27;22.30;44.60
76607;DHT22;65498;50.916;4.698;2023-01-16T14:06:20;22.30;44.80
76607;DHT22;65498;50.916;4.698;2023-01-16T14:09:14;22.30;44.60
76607;DHT22;65498;50.916;4.698;2023-01-16T14:12:21;22.30;44.80
76607;DHT22;65498;50.916;4.698;2023-01-16T14:14:28;22.30;44.70
76607;DHT22;65498;50.916;4.698;2023-01-16T14:17:15;22.40;44.70
76607;DHT22;65498;50.916;4.698;2023-01-16T14:19:50;22.20;42.20
76607;DHT22;65498;50.916;4.698;2023-01-16T14:25:13;22.20;43.20
76607;DHT22;65498;50.916;4.698;2023-01-16T14:27:38;22.10;43.40
76607;DHT22;65498;50.916;4.698;2023-01-16T14:30:13;22.20;43.40
76607;DHT22;65498;50.916;4.698;2023-01-16T14:32:37;22.20;43.30
76607;DHT22;65498;50.916;4.698;2023-01-16T14:35:15;22.30;43.20
76607;DHT22;65498;50.916;4.698;2023-01-16T14:38:05;22.30;43.00
76607;DHT22;65498;50.916;4.698;2023-01-16T14:40:21;22.30;43.20
76607;DHT22;65498;50.916;4.698;2023-01-16T14:42:51;22.40;43.00
76607;DHT22;65498;50.916;4.698;2023-01-16T14:45:39;22.40;42.90
76607;DHT22;65498;50.916;4.698;2023-01-16T14:48:31;22.40;42.90
76607;DHT22;65498;50.916;4.698;2023-01-16T14:54:19;22.30;43.10
76607;DHT22;65498;50.916;4.698;2023-01-16T14:57:20;22.30;43.20
76607;DHT22;65498;50.916;4.698;2023-01-16T15:05:35;22.30;44.40
76607;DHT22;65498;50.916;4.698;2023-01-16T15:08:30;22.30;43.40
76607;DHT22;65498;50.916;4.698;2023-01-16T15:10:56;22.40;43.60
76607;DHT22;65498;50.916;4.698;2023-01-16T15:13:31;22.40;43.40
76607;DHT22;65498;50.916;4.698;2023-01-16T15:16:02;22.40;43.30
76607;DHT22;65498;50.916;4.698;2023-01-16T15:18:31;22.40;43.40
76607;DHT22;65498;50.916;4.698;2023-01-16T15:21:18;22.40;43.30
76607;DHT22;65498;50.916;4.698;2023-01-16T15:24:04;22.40;43.30
76607;DHT22;65498;50.916;4.698;2023-01-16T15:32:14;22.40;43.30
76607;DHT22;65498;50.916;4.698;2023-01-16T15:34:44;22.40;43.30
76607;DHT22;65498;50.916;4.698;2023-01-16T15:37:23;22.30;43.30
76607;DHT22;65498;50.916;4.698;2023-01-16T15:39:53;22.30;43.30
76607;DHT22;65498;50.916;4.698;2023-01-16T15:42:24;22.30;43.50
76607;DHT22;65498;50.916;4.698;2023-01-16T15:45:22;22.30;43.30
76607;DHT22;65498;50.916;4.698;2023-01-16T15:48:44;22.30;43.30
76607;DHT22;65498;50.916;4.698;2023-01-16T15:51:12;22.30;43.10
76607;DHT22;65498;50.916;4.698;2023-01-16T15:53:44;22.30;43.30
76607;DHT22;65498;50.916;4.698;2023-01-16T15:58:51;22.40;43.00
76607;DHT22;65498;50.916;4.698;2023-01-16T16:01:29;22.40;43.10
76607;DHT22;65498;50.916;4.698;2023-01-16T16:03:53;22.40;43.10
76607;DHT22;65498;50.916;4.698;2023-01-16T16:06:22;22.40;42.90
76607;DHT22;65498;50.916;4.698;2023-01-16T16:08:52;22.40;42.70
76607;DHT22;65498;50.916;4.698;2023-01-16T16:11:22;22.40;42.70
76607;DHT22;65498;50.916;4.698;2023-01-16T16:14:20;22.40;42.80
76607;DHT22;65498;50.916;4.698;2023-01-16T16:17:17;22.40;42.80
76607;DHT22;65498;50.916;4.698;2023-01-16T16:22:48;22.30;42.60
76607;DHT22;65498;50.916;4.698;2023-01-16T16:25:28;22.30;42.50
76607;DHT22;65498;50.916;4.698;2023-01-16T16:27:52;22.30;42.50
76607;DHT22;65498;50.916;4.698;2023-01-16T16:30:23;22.30;42.50
76607;DHT22;65498;50.916;4.698;2023-01-16T16:32:51;22.30;42.40
76607;DHT22;65498;50.916;4.698;2023-01-16T16:35:28;22.30;42.30
76607;DHT22;65498;50.916;4.698;2023-01-16T16:37:56;22.30;42.40
76607;DHT22;65498;50.916;4.698;2023-01-16T16:40:24;22.20;42.50
76607;DHT22;65498;50.916;4.698;2023-01-16T16:42:54;22.30;42.50
76607;DHT22;65498;50.916;4.698;2023-01-16T16:45:27;22.30;42.40
76607;DHT22;65498;50.916;4.698;2023-01-16T16:48:18;22.30;42.20
76607;DHT22;65498;50.916;4.698;2023-01-16T16:50:42;22.40;42.20
76607;DHT22;65498;50.916;4.698;2023-01-16T16:53:14;22.40;42.10
76607;DHT22;65498;50.916;4.698;2023-01-16T16:55:53;22.30;42.00
76607;DHT22;65498;50.916;4.698;2023-01-16T16:58:23;22.40;42.00
76607;DHT22;65498;50.916;4.698;2023-01-16T17:00:52;22.30;42.20
76607;DHT22;65498;50.916;4.698;2023-01-16T17:03:22;22.40;42.90
76607;DHT22;65498;50.916;4.698;2023-01-16T17:05:50;22.30;42.20
76607;DHT22;65498;50.916;4.698;2023-01-16T17:08:24;22.40;42.10
76607;DHT22;65498;50.916;4.698;2023-01-16T17:10:54;22.40;42.30
76607;DHT22;65498;50.916;4.698;2023-01-16T17:13:23;22.40;42.20
76607;DHT22;65498;50.916;4.698;2023-01-16T17:15:55;22.30;42.20
76607;DHT22;65498;50.916;4.698;2023-01-16T17:18:25;22.30;42.40
76607;DHT22;65498;50.916;4.698;2023-01-16T17:20:54;22.20;42.30
76607;DHT22;65498;50.916;4.698;2023-01-16T17:23:22;22.20;42.70
76607;DHT22;65498;50.916;4.698;2023-01-16T17:25:51;22.30;42.90
76607;DHT22;65498;50.916;4.698;2023-01-16T17:28:18;22.30;42.90
76607;DHT22;65498;50.916;4.698;2023-01-16T17:30:46;22.40;42.80
76607;DHT22;65498;50.916;4.698;2023-01-16T17:33:16;22.30;42.70
76607;DHT22;65498;50.916;4.698;2023-01-16T17:35:46;22.40;42.90
76607;DHT22;65498;50.916;4.698;2023-01-16T17:38:19;22.40;43.00
76607;DHT22;65498;50.916;4.698;2023-01-16T17:40:47;22.30;42.80
76607;DHT22;65498;50.916;4.698;2023-01-16T17:43:16;22.30;42.80
76607;DHT22;65498;50.916;4.698;2023-01-16T17:46:11;22.30;42.70
76607;DHT22;65498;50.916;4.698;2023-01-16T17:48:35;22.30;42.50
76607;DHT22;65498;50.916;4.698;2023-01-16T17:51:04;22.30;42.50
76607;DHT22;65498;50.916;4.698;2023-01-16T17:53:32;22.30;42.40
76607;DHT22;65498;50.916;4.698;2023-01-16T17:56:03;22.30;42.70
76607;DHT22;65498;50.916;4.698;2023-01-16T17:58:33;22.30;42.70
76607;DHT22;65498;50.916;4.698;2023-01-16T18:01:20;22.30;42.90
76607;DHT22;65498;50.916;4.698;2023-01-16T18:03:47;22.30;43.20
76607;DHT22;65498;50.916;4.698;2023-01-16T18:06:17;22.30;43.30